createdAt,value
2019-05-21T00:04:00.000Z,97484
2019-05-21T00:09:00.000Z,97473
2019-05-21T00:14:00.000Z,97484
2019-05-21T00:19:00.000Z,97479
2019-05-21T00:24:00.000Z,97483
2019-05-21T00:29:00.000Z,97481
2019-05-21T00:34:00.000Z,97482
2019-05-21T00:39:00.000Z,97477
2019-05-21T00:44:00.000Z,97484
2019-05-21T00:49:00.000Z,97488
2019-05-21T00:54:00.000Z,97491
2019-05-21T00:59:00.000Z,97484
2019-05-21T01:04:00.000Z,97487
2019-05-21T01:10:00.000Z,97499
2019-05-21T01:15:00.000Z,97489
2019-05-21T01:20:00.000Z,97494
2019-05-21T01:25:00.000Z,97490
2019-05-21T01:30:00.000Z,97494
2019-05-21T01:35:00.000Z,97490
2019-05-21T01:40:00.000Z,97497
2019-05-21T01:45:00.000Z,97503
2019-05-21T01:50:00.000Z,97488
2019-05-21T01:55:00.000Z,97488
2019-05-21T02:00:00.000Z,97488
2019-05-21T02:05:00.000Z,97492
2019-05-21T02:10:00.000Z,97494
2019-05-21T02:15:00.000Z,97501
2019-05-21T02:20:00.000Z,97498
2019-05-21T02:25:00.000Z,97480
2019-05-21T02:30:00.000Z,97495
2019-05-21T02:35:00.000Z,97504
2019-05-21T02:40:00.000Z,97489
2019-05-21T02:45:00.000Z,97495
2019-05-21T02:50:00.000Z,97508
2019-05-21T02:55:00.000Z,97499
2019-05-21T03:00:00.000Z,97501
2019-05-21T03:05:00.000Z,97493
2019-05-21T03:11:00.000Z,97488
2019-05-21T03:16:00.000Z,97481
2019-05-21T03:21:00.000Z,97494
2019-05-21T03:26:00.000Z,97503
2019-05-21T03:31:00.000Z,97487
2019-05-21T03:36:00.000Z,97503
2019-05-21T03:41:00.000Z,97493
2019-05-21T03:46:00.000Z,97499
2019-05-21T03:51:00.000Z,97506
2019-05-21T03:56:00.000Z,97506
2019-05-21T04:01:00.000Z,97509
2019-05-21T04:06:00.000Z,97511
2019-05-21T04:11:00.000Z,97508
2019-05-21T04:16:00.000Z,97513
2019-05-21T04:21:00.000Z,97522
2019-05-21T04:26:00.000Z,97521
2019-05-21T04:31:00.000Z,97526
2019-05-21T04:36:00.000Z,97531
2019-05-21T04:42:00.000Z,97546
2019-05-21T04:47:00.000Z,97551
2019-05-21T04:52:00.000Z,97548
2019-05-21T04:57:00.000Z,97551
2019-05-21T05:02:00.000Z,97559
2019-05-21T05:07:00.000Z,97561
2019-05-21T05:12:00.000Z,97575
2019-05-21T05:17:00.000Z,97563
2019-05-21T05:22:00.000Z,97567
2019-05-21T05:27:00.000Z,97572
2019-05-21T05:32:00.000Z,97566
2019-05-21T05:37:00.000Z,97569
2019-05-21T05:42:00.000Z,97584
2019-05-21T05:47:00.000Z,97579
2019-05-21T05:52:00.000Z,97574
2019-05-21T05:57:00.000Z,97596
2019-05-21T06:02:00.000Z,97590
2019-05-21T06:07:00.000Z,97607
2019-05-21T06:13:00.000Z,97613
2019-05-21T06:18:00.000Z,97615
2019-05-21T06:23:00.000Z,97619
2019-05-21T06:28:00.000Z,97615
2019-05-21T06:33:00.000Z,97620
2019-05-21T06:38:00.000Z,97630
2019-05-21T06:43:00.000Z,97627
2019-05-21T06:48:00.000Z,97633
2019-05-21T06:53:00.000Z,97633
2019-05-21T06:58:00.000Z,97637
2019-05-21T07:03:00.000Z,97643
2019-05-21T07:08:00.000Z,97646
2019-05-21T07:13:00.000Z,97649
2019-05-21T07:18:00.000Z,97656
2019-05-21T07:23:00.000Z,97657
2019-05-21T07:28:00.000Z,97654
2019-05-21T07:33:00.000Z,97668
2019-05-21T07:38:00.000Z,97672
2019-05-21T07:43:00.000Z,97671
2019-05-21T07:48:00.000Z,97668
2019-05-21T07:53:00.000Z,97668
2019-05-21T07:58:00.000Z,97669
2019-05-21T08:03:00.000Z,97671
2019-05-21T08:08:00.000Z,97668
2019-05-21T08:14:00.000Z,97676
2019-05-21T08:19:00.000Z,97681
2019-05-21T08:24:00.000Z,97682
2019-05-21T08:29:00.000Z,97693
2019-05-21T08:34:00.000Z,97694
2019-05-21T08:39:00.000Z,97708
2019-05-21T08:44:00.000Z,97717
2019-05-21T08:49:00.000Z,97717
2019-05-21T08:54:00.000Z,97718
2019-05-21T08:59:00.000Z,97721
2019-05-21T09:04:00.000Z,97731
2019-05-21T09:09:00.000Z,97751
2019-05-21T09:14:00.000Z,97758
2019-05-21T09:19:00.000Z,97765
2019-05-21T09:24:00.000Z,97762
2019-05-21T09:29:00.000Z,97759
2019-05-21T09:34:00.000Z,97768
2019-05-21T09:39:00.000Z,97769
2019-05-21T09:44:00.000Z,97770
2019-05-21T09:49:00.000Z,97771
2019-05-21T09:54:00.000Z,97781
2019-05-21T10:00:00.000Z,97773
2019-05-21T10:05:00.000Z,97770
2019-05-21T10:10:00.000Z,97764
2019-05-21T10:15:00.000Z,97766
2019-05-21T10:20:00.000Z,97764
2019-05-21T10:25:00.000Z,97777
2019-05-21T10:30:00.000Z,97787
2019-05-21T10:35:00.000Z,97782
2019-05-21T10:40:00.000Z,97780
2019-05-21T10:45:00.000Z,97780
2019-05-21T10:50:00.000Z,97781
2019-05-21T10:55:00.000Z,97788
2019-05-21T11:00:00.000Z,97793
2019-05-21T11:05:00.000Z,97782
2019-05-21T11:10:00.000Z,97791
2019-05-21T11:15:00.000Z,97782
2019-05-21T11:20:00.000Z,97792
2019-05-21T11:25:00.000Z,97794
2019-05-21T11:30:00.000Z,97796
2019-05-21T11:35:00.000Z,97813
2019-05-21T11:40:00.000Z,97808
2019-05-21T11:45:00.000Z,97803
2019-05-21T11:50:00.000Z,97819
2019-05-21T11:55:00.000Z,97824
2019-05-21T12:00:00.000Z,97827
2019-05-21T12:05:00.000Z,97822
2019-05-21T12:10:00.000Z,97829
2019-05-21T12:15:00.000Z,97823
2019-05-21T12:20:00.000Z,97831
2019-05-21T12:25:00.000Z,97800
2019-05-21T12:30:00.000Z,97828
2019-05-21T12:35:00.000Z,97836
2019-05-21T12:40:00.000Z,97813
2019-05-21T12:45:00.000Z,97823
2019-05-21T12:50:00.000Z,97827
2019-05-21T12:55:00.000Z,97819
2019-05-21T13:00:00.000Z,97827
2019-05-21T13:05:00.000Z,97823
2019-05-21T13:10:00.000Z,97820
2019-05-21T13:15:00.000Z,97813
2019-05-21T13:20:00.000Z,97801
2019-05-21T13:25:00.000Z,97822
2019-05-21T13:30:00.000Z,97827
2019-05-21T13:35:00.000Z,97828
2019-05-21T13:40:00.000Z,97848
2019-05-21T13:45:00.000Z,97817
2019-05-21T13:50:00.000Z,97835
2019-05-21T13:55:00.000Z,97835
2019-05-21T14:00:00.000Z,97829
2019-05-21T14:05:00.000Z,97849
2019-05-21T14:10:00.000Z,97869
2019-05-21T14:15:00.000Z,97875
2019-05-21T14:20:00.000Z,97858
2019-05-21T14:25:00.000Z,97859
2019-05-21T14:31:00.000Z,97859
2019-05-21T14:36:00.000Z,97900
2019-05-21T14:41:00.000Z,97880
2019-05-21T14:46:00.000Z,97869
2019-05-21T14:51:00.000Z,97872
2019-05-21T14:56:00.000Z,97875
2019-05-21T15:01:00.000Z,97858
2019-05-21T15:06:00.000Z,97860
2019-05-21T15:11:00.000Z,97849
2019-05-21T15:16:00.000Z,97856
2019-05-21T15:21:00.000Z,97854
2019-05-21T15:26:00.000Z,97857
2019-05-21T15:31:00.000Z,97857
2019-05-21T15:36:00.000Z,97847
2019-05-21T15:41:00.000Z,97838
2019-05-21T15:46:00.000Z,97852
2019-05-21T15:51:00.000Z,97866
2019-05-21T15:56:00.000Z,97858
2019-05-21T16:01:00.000Z,97852
2019-05-21T16:06:00.000Z,97893
2019-05-21T16:11:00.000Z,97868
2019-05-21T16:16:00.000Z,97878
2019-05-21T16:21:00.000Z,97876
2019-05-21T16:26:00.000Z,97875
2019-05-21T16:31:00.000Z,97870
2019-05-21T16:36:00.000Z,97872
2019-05-21T16:41:00.000Z,97888
2019-05-21T16:46:00.000Z,97891
2019-05-21T16:51:00.000Z,97894
2019-05-21T16:56:00.000Z,97906
2019-05-21T17:01:00.000Z,97904
2019-05-21T17:06:00.000Z,97901
2019-05-21T17:11:00.000Z,97905
2019-05-21T17:17:00.000Z,97897
2019-05-21T17:22:00.000Z,97891
2019-05-21T17:27:00.000Z,97889
2019-05-21T17:32:00.000Z,97874
2019-05-21T17:37:00.000Z,97884
2019-05-21T17:42:00.000Z,97889
2019-05-21T17:47:00.000Z,97896
2019-05-21T17:52:00.000Z,97883
2019-05-21T17:57:00.000Z,97885
2019-05-21T18:02:00.000Z,97882
2019-05-21T18:07:00.000Z,97872
2019-05-21T18:12:00.000Z,97870
2019-05-21T18:17:00.000Z,97873
2019-05-21T18:22:00.000Z,97883
2019-05-21T18:27:00.000Z,97881
2019-05-21T18:32:00.000Z,97888
2019-05-21T18:37:00.000Z,97881
2019-05-21T18:42:00.000Z,97897
2019-05-21T18:47:00.000Z,97903
2019-05-21T18:52:00.000Z,97906
2019-05-21T18:57:00.000Z,97919
2019-05-21T19:02:00.000Z,97928
2019-05-21T19:07:00.000Z,97922
2019-05-21T19:12:00.000Z,97923
2019-05-21T19:17:00.000Z,97945
2019-05-21T19:22:00.000Z,97943
2019-05-21T19:27:00.000Z,97943
2019-05-21T19:32:00.000Z,97931
2019-05-21T19:37:00.000Z,97944
2019-05-21T19:42:00.000Z,97949
2019-05-21T19:47:00.000Z,97977
2019-05-21T19:52:00.000Z,97990
2019-05-21T19:57:00.000Z,97974
2019-05-21T20:02:00.000Z,97981
2019-05-21T20:07:00.000Z,97965
2019-05-21T20:13:00.000Z,97980
2019-05-21T20:18:00.000Z,97984
2019-05-21T20:23:00.000Z,97981
2019-05-21T20:28:00.000Z,97995
2019-05-21T20:33:00.000Z,97986
2019-05-21T20:38:00.000Z,97987
2019-05-21T20:43:00.000Z,97985
2019-05-21T20:48:00.000Z,97985
2019-05-21T20:53:00.000Z,97984
2019-05-21T20:58:00.000Z,97984
2019-05-21T21:03:00.000Z,97985
2019-05-21T21:08:00.000Z,98005
2019-05-21T21:13:00.000Z,97995
2019-05-21T21:18:00.000Z,97998
2019-05-21T21:23:00.000Z,97999
2019-05-21T21:28:00.000Z,98001
2019-05-21T21:33:00.000Z,97994
2019-05-21T21:38:00.000Z,98001
2019-05-21T21:43:00.000Z,98012
2019-05-21T21:48:00.000Z,97995
2019-05-21T21:53:00.000Z,97998
2019-05-21T21:58:00.000Z,97991
2019-05-21T22:03:00.000Z,97997
2019-05-21T22:08:00.000Z,97996
2019-05-21T22:13:00.000Z,97995
2019-05-21T22:18:00.000Z,97992
2019-05-21T22:23:00.000Z,97983
2019-05-21T22:28:00.000Z,97986
2019-05-21T22:33:00.000Z,97993
2019-05-21T22:38:00.000Z,97990
2019-05-21T22:43:00.000Z,98000
2019-05-21T22:48:00.000Z,98021
2019-05-21T22:53:00.000Z,98010
2019-05-21T22:58:00.000Z,98005
2019-05-21T23:03:00.000Z,98001
2019-05-21T23:08:00.000Z,98001
2019-05-21T23:13:00.000Z,97982
2019-05-21T23:18:00.000Z,97994
2019-05-21T23:23:00.000Z,97992
2019-05-21T23:28:00.000Z,97998
2019-05-21T23:33:00.000Z,97993
2019-05-21T23:38:00.000Z,97990
2019-05-21T23:43:00.000Z,97990
2019-05-21T23:48:00.000Z,97987
2019-05-21T23:53:00.000Z,97976
2019-05-21T23:58:00.000Z,97961
